American Canyon, California
Current Conditions -  °F | °C
As of 8:54 PM on Thursday 30 Oct 2014 (Local Time) from KAPC Reporting Station
Broken Clouds Broken Clouds  
Wind Chill: 62°   Ceiling: 1500
Heat Index: 62°   Visibility: 10mi
Dew Point: 58°   Wind: 6mph
Humidity: 86%   Direction: 240°WSW
Pressure: 29.88"   Gusts: NA
Location:  38.17°N, 122.25°W
Report Text: KAPC 310354Z AUTO 24005KT 10SM BKN015 17/14 A2988 RMK AO2 SLP110 T01670144
Loading
Personal Weather Stations






























Interactive Weather Map
Tropical Storm Tracking
New forecast layout! Learn more

10-Day Weather Forecast

Advertisements
Track Severe Weather on mobile